sensor_id;sensor_type;location;lat;lon;timestamp;P1;durP1;ratioP1;P2;durP2;ratioP2
63007;SDS011;49266;47.552;19.078;2022-11-14T00:01:51;262.45;;;36.42;;
63007;SDS011;49266;47.552;19.078;2022-11-14T00:06:31;322.05;;;37.40;;
63007;SDS011;49266;47.552;19.078;2022-11-14T00:11:11;130.00;;;35.50;;
63007;SDS011;49266;47.552;19.078;2022-11-14T00:15:52;309.05;;;37.38;;
63007;SDS011;49266;47.552;19.078;2022-11-14T00:20:35;187.05;;;36.03;;
63007;SDS011;49266;47.552;19.078;2022-11-14T00:25:16;306.10;;;37.00;;
63007;SDS011;49266;47.552;19.078;2022-11-14T00:29:56;278.05;;;36.95;;
63007;SDS011;49266;47.552;19.078;2022-11-14T00:34:36;304.70;;;36.35;;
63007;SDS011;49266;47.552;19.078;2022-11-14T00:39:16;226.07;;;33.00;;
63007;SDS011;49266;47.552;19.078;2022-11-14T00:43:56;236.60;;;35.25;;
63007;SDS011;49266;47.552;19.078;2022-11-14T00:48:36;238.02;;;37.22;;
63007;SDS011;49266;47.552;19.078;2022-11-14T00:53:17;154.95;;;35.22;;
63007;SDS011;49266;47.552;19.078;2022-11-14T00:57:57;305.30;;;36.80;;
63007;SDS011;49266;47.552;19.078;2022-11-14T01:02:37;217.68;;;35.85;;
63007;SDS011;49266;47.552;19.078;2022-11-14T01:07:17;267.75;;;36.50;;
63007;SDS011;49266;47.552;19.078;2022-11-14T01:11:58;168.25;;;33.65;;
63007;SDS011;49266;47.552;19.078;2022-11-14T01:16:38;231.00;;;34.17;;
63007;SDS011;49266;47.552;19.078;2022-11-14T01:21:18;282.90;;;31.95;;
63007;SDS011;49266;47.552;19.078;2022-11-14T01:26:02;258.45;;;36.20;;
63007;SDS011;49266;47.552;19.078;2022-11-14T01:30:42;238.65;;;34.90;;
63007;SDS011;49266;47.552;19.078;2022-11-14T01:35:22;226.77;;;34.92;;
63007;SDS011;49266;47.552;19.078;2022-11-14T01:40:03;259.48;;;36.97;;
63007;SDS011;49266;47.552;19.078;2022-11-14T01:44:47;147.15;;;33.28;;
63007;SDS011;49266;47.552;19.078;2022-11-14T01:49:30;249.52;;;31.70;;
63007;SDS011;49266;47.552;19.078;2022-11-14T01:54:23;308.20;;;33.05;;
63007;SDS011;49266;47.552;19.078;2022-11-14T01:59:10;108.78;;;30.88;;
63007;SDS011;49266;47.552;19.078;2022-11-14T02:03:50;193.63;;;29.60;;
63007;SDS011;49266;47.552;19.078;2022-11-14T02:08:32;106.65;;;24.30;;
63007;SDS011;49266;47.552;19.078;2022-11-14T02:13:13;157.73;;;28.50;;
63007;SDS011;49266;47.552;19.078;2022-11-14T02:17:53;153.13;;;29.48;;
63007;SDS011;49266;47.552;19.078;2022-11-14T02:22:34;205.68;;;30.10;;
63007;SDS011;49266;47.552;19.078;2022-11-14T02:27:14;236.00;;;28.77;;
63007;SDS011;49266;47.552;19.078;2022-11-14T02:31:55;150.38;;;28.52;;
63007;SDS011;49266;47.552;19.078;2022-11-14T02:36:35;158.70;;;28.75;;
63007;SDS011;49266;47.552;19.078;2022-11-14T02:41:15;218.43;;;29.63;;
63007;SDS011;49266;47.552;19.078;2022-11-14T02:45:56;244.57;;;29.90;;
63007;SDS011;49266;47.552;19.078;2022-11-14T02:50:37;174.95;;;30.15;;
63007;SDS011;49266;47.552;19.078;2022-11-14T02:55:17;228.52;;;30.80;;
63007;SDS011;49266;47.552;19.078;2022-11-14T02:59:57;214.48;;;26.63;;
63007;SDS011;49266;47.552;19.078;2022-11-14T03:04:37;245.88;;;26.27;;
63007;SDS011;49266;47.552;19.078;2022-11-14T03:09:17;183.70;;;25.77;;
63007;SDS011;49266;47.552;19.078;2022-11-14T03:13:58;156.73;;;27.45;;
63007;SDS011;49266;47.552;19.078;2022-11-14T03:18:38;102.18;;;26.60;;
63007;SDS011;49266;47.552;19.078;2022-11-14T03:23:19;87.82;;;29.50;;
63007;SDS011;49266;47.552;19.078;2022-11-14T03:27:59;210.30;;;29.70;;
63007;SDS011;49266;47.552;19.078;2022-11-14T03:32:39;134.85;;;31.77;;
63007;SDS011;49266;47.552;19.078;2022-11-14T03:37:19;126.97;;;30.15;;
63007;SDS011;49266;47.552;19.078;2022-11-14T03:41:59;142.98;;;30.25;;
63007;SDS011;49266;47.552;19.078;2022-11-14T03:46:40;114.50;;;27.67;;
63007;SDS011;49266;47.552;19.078;2022-11-14T03:51:20;122.88;;;27.58;;
63007;SDS011;49266;47.552;19.078;2022-11-14T03:56:01;192.15;;;26.58;;
63007;SDS011;49266;47.552;19.078;2022-11-14T04:00:41;171.57;;;25.80;;
63007;SDS011;49266;47.552;19.078;2022-11-14T04:05:21;126.70;;;27.73;;
63007;SDS011;49266;47.552;19.078;2022-11-14T04:10:02;218.05;;;27.23;;
63007;SDS011;49266;47.552;19.078;2022-11-14T04:14:42;200.50;;;28.20;;
63007;SDS011;49266;47.552;19.078;2022-11-14T04:19:22;140.15;;;26.02;;
63007;SDS011;49266;47.552;19.078;2022-11-14T04:24:03;182.63;;;28.63;;
63007;SDS011;49266;47.552;19.078;2022-11-14T04:28:43;104.70;;;28.27;;
63007;SDS011;49266;47.552;19.078;2022-11-14T04:33:23;133.48;;;27.80;;
63007;SDS011;49266;47.552;19.078;2022-11-14T04:38:03;103.68;;;26.27;;
63007;SDS011;49266;47.552;19.078;2022-11-14T04:42:43;110.88;;;26.50;;
63007;SDS011;49266;47.552;19.078;2022-11-14T04:47:24;294.17;;;30.27;;
63007;SDS011;49266;47.552;19.078;2022-11-14T04:52:04;161.32;;;26.85;;
63007;SDS011;49266;47.552;19.078;2022-11-14T04:56:44;167.95;;;27.13;;
63007;SDS011;49266;47.552;19.078;2022-11-14T05:01:24;191.45;;;28.30;;
63007;SDS011;49266;47.552;19.078;2022-11-14T05:06:04;149.60;;;31.58;;
63007;SDS011;49266;47.552;19.078;2022-11-14T05:10:45;221.82;;;27.95;;
63007;SDS011;49266;47.552;19.078;2022-11-14T05:15:25;215.45;;;29.60;;
63007;SDS011;49266;47.552;19.078;2022-11-14T05:20:05;199.68;;;28.45;;
63007;SDS011;49266;47.552;19.078;2022-11-14T05:24:45;167.15;;;28.42;;
63007;SDS011;49266;47.552;19.078;2022-11-14T05:29:26;168.50;;;30.85;;
63007;SDS011;49266;47.552;19.078;2022-11-14T05:34:06;145.95;;;31.98;;
63007;SDS011;49266;47.552;19.078;2022-11-14T05:38:46;181.77;;;30.52;;
63007;SDS011;49266;47.552;19.078;2022-11-14T05:43:28;85.53;;;27.02;;
63007;SDS011;49266;47.552;19.078;2022-11-14T05:48:08;81.82;;;27.13;;
63007;SDS011;49266;47.552;19.078;2022-11-14T05:52:48;82.85;;;26.58;;
63007;SDS011;49266;47.552;19.078;2022-11-14T05:57:29;95.93;;;27.50;;
63007;SDS011;49266;47.552;19.078;2022-11-14T06:02:09;91.28;;;26.83;;
63007;SDS011;49266;47.552;19.078;2022-11-14T06:06:49;83.90;;;26.08;;
63007;SDS011;49266;47.552;19.078;2022-11-14T06:11:29;120.93;;;28.33;;
63007;SDS011;49266;47.552;19.078;2022-11-14T06:16:11;121.50;;;32.50;;
63007;SDS011;49266;47.552;19.078;2022-11-14T06:20:51;97.30;;;34.78;;
63007;SDS011;49266;47.552;19.078;2022-11-14T06:25:50;133.18;;;29.63;;
63007;SDS011;49266;47.552;19.078;2022-11-14T06:30:30;86.20;;;30.23;;
63007;SDS011;49266;47.552;19.078;2022-11-14T06:35:10;114.07;;;31.13;;
63007;SDS011;49266;47.552;19.078;2022-11-14T06:39:51;107.80;;;30.92;;
63007;SDS011;49266;47.552;19.078;2022-11-14T06:44:31;130.88;;;32.03;;
63007;SDS011;49266;47.552;19.078;2022-11-14T06:49:11;105.55;;;27.83;;
63007;SDS011;49266;47.552;19.078;2022-11-14T06:53:51;85.32;;;28.35;;
63007;SDS011;49266;47.552;19.078;2022-11-14T06:58:34;147.13;;;29.45;;
63007;SDS011;49266;47.552;19.078;2022-11-14T07:03:14;172.63;;;31.50;;
63007;SDS011;49266;47.552;19.078;2022-11-14T07:07:56;131.77;;;32.35;;
63007;SDS011;49266;47.552;19.078;2022-11-14T07:12:36;116.88;;;29.65;;
63007;SDS011;49266;47.552;19.078;2022-11-14T07:17:16;191.45;;;38.55;;
63007;SDS011;49266;47.552;19.078;2022-11-14T07:21:56;60.10;;;27.52;;
63007;SDS011;49266;47.552;19.078;2022-11-14T07:26:36;198.02;;;32.05;;
63007;SDS011;49266;47.552;19.078;2022-11-14T07:31:17;161.95;;;27.25;;
63007;SDS011;49266;47.552;19.078;2022-11-14T07:35:58;101.20;;;27.15;;
63007;SDS011;49266;47.552;19.078;2022-11-14T07:40:38;103.93;;;28.10;;
63007;SDS011;49266;47.552;19.078;2022-11-14T07:45:18;74.47;;;26.50;;
63007;SDS011;49266;47.552;19.078;2022-11-14T07:49:59;67.22;;;26.25;;
63007;SDS011;49266;47.552;19.078;2022-11-14T07:54:39;46.85;;;24.70;;
63007;SDS011;49266;47.552;19.078;2022-11-14T07:59:19;56.80;;;26.35;;
63007;SDS011;49266;47.552;19.078;2022-11-14T08:03:59;60.03;;;29.10;;
63007;SDS011;49266;47.552;19.078;2022-11-14T08:08:40;61.67;;;32.08;;
63007;SDS011;49266;47.552;19.078;2022-11-14T08:13:20;65.20;;;29.25;;
63007;SDS011;49266;47.552;19.078;2022-11-14T08:18:00;57.92;;;30.80;;
63007;SDS011;49266;47.552;19.078;2022-11-14T08:22:41;71.40;;;32.50;;
63007;SDS011;49266;47.552;19.078;2022-11-14T08:27:21;68.38;;;32.97;;
63007;SDS011;49266;47.552;19.078;2022-11-14T08:32:02;61.28;;;31.63;;
63007;SDS011;49266;47.552;19.078;2022-11-14T08:36:42;64.38;;;32.90;;
63007;SDS011;49266;47.552;19.078;2022-11-14T08:41:22;73.65;;;34.35;;
63007;SDS011;49266;47.552;19.078;2022-11-14T08:46:03;78.30;;;36.47;;
63007;SDS011;49266;47.552;19.078;2022-11-14T08:50:44;68.47;;;35.33;;
63007;SDS011;49266;47.552;19.078;2022-11-14T08:55:24;73.88;;;36.55;;
63007;SDS011;49266;47.552;19.078;2022-11-14T09:00:04;70.43;;;35.70;;
63007;SDS011;49266;47.552;19.078;2022-11-14T09:04:45;65.57;;;35.38;;
63007;SDS011;49266;47.552;19.078;2022-11-14T09:09:25;66.28;;;33.95;;
63007;SDS011;49266;47.552;19.078;2022-11-14T09:14:05;66.22;;;35.17;;
63007;SDS011;49266;47.552;19.078;2022-11-14T09:18:45;63.20;;;33.85;;
63007;SDS011;49266;47.552;19.078;2022-11-14T09:23:26;60.28;;;34.63;;
63007;SDS011;49266;47.552;19.078;2022-11-14T09:28:06;57.67;;;32.92;;
63007;SDS011;49266;47.552;19.078;2022-11-14T09:32:48;53.63;;;30.92;;
63007;SDS011;49266;47.552;19.078;2022-11-14T09:37:28;52.63;;;30.83;;
63007;SDS011;49266;47.552;19.078;2022-11-14T09:46:55;50.93;;;29.23;;
63007;SDS011;49266;47.552;19.078;2022-11-14T09:51:38;48.38;;;29.65;;
63007;SDS011;49266;47.552;19.078;2022-11-14T09:56:22;48.42;;;30.33;;
63007;SDS011;49266;47.552;19.078;2022-11-14T10:01:16;49.63;;;29.55;;
63007;SDS011;49266;47.552;19.078;2022-11-14T10:06:01;49.03;;;29.65;;
63007;SDS011;49266;47.552;19.078;2022-11-14T10:10:50;51.67;;;31.35;;
63007;SDS011;49266;47.552;19.078;2022-11-14T10:30:24;48.08;;;30.40;;
63007;SDS011;49266;47.552;19.078;2022-11-14T10:35:27;46.80;;;29.13;;
63007;SDS011;49266;47.552;19.078;2022-11-14T10:45:02;44.28;;;29.38;;
63007;SDS011;49266;47.552;19.078;2022-11-14T10:49:43;45.95;;;28.65;;
63007;SDS011;49266;47.552;19.078;2022-11-14T10:54:27;44.40;;;28.60;;
63007;SDS011;49266;47.552;19.078;2022-11-14T10:59:09;47.28;;;28.65;;
63007;SDS011;49266;47.552;19.078;2022-11-14T11:03:50;45.90;;;29.63;;
63007;SDS011;49266;47.552;19.078;2022-11-14T11:08:30;40.70;;;27.90;;
63007;SDS011;49266;47.552;19.078;2022-11-14T11:13:30;46.17;;;28.75;;
63007;SDS011;49266;47.552;19.078;2022-11-14T11:23:04;45.85;;;28.88;;
63007;SDS011;49266;47.552;19.078;2022-11-14T11:27:44;45.53;;;29.17;;
63007;SDS011;49266;47.552;19.078;2022-11-14T11:32:25;44.28;;;28.35;;
63007;SDS011;49266;47.552;19.078;2022-11-14T11:37:17;45.45;;;29.23;;
63007;SDS011;49266;47.552;19.078;2022-11-14T11:41:58;41.97;;;28.15;;
63007;SDS011;49266;47.552;19.078;2022-11-14T11:51:23;42.60;;;27.80;;
63007;SDS011;49266;47.552;19.078;2022-11-14T11:56:12;42.00;;;28.77;;
63007;SDS011;49266;47.552;19.078;2022-11-14T12:00:52;45.58;;;28.83;;
63007;SDS011;49266;47.552;19.078;2022-11-14T12:10:24;44.22;;;28.70;;
63007;SDS011;49266;47.552;19.078;2022-11-14T12:29:34;46.70;;;28.35;;
63007;SDS011;49266;47.552;19.078;2022-11-14T12:34:23;40.97;;;28.08;;
63007;SDS011;49266;47.552;19.078;2022-11-14T12:39:05;40.58;;;28.05;;
63007;SDS011;49266;47.552;19.078;2022-11-14T12:43:45;39.63;;;27.95;;
63007;SDS011;49266;47.552;19.078;2022-11-14T13:07:45;40.28;;;27.05;;
63007;SDS011;49266;47.552;19.078;2022-11-14T13:12:28;39.60;;;27.30;;
63007;SDS011;49266;47.552;19.078;2022-11-14T13:17:27;44.15;;;28.23;;
63007;SDS011;49266;47.552;19.078;2022-11-14T13:23:00;27.58;;;17.55;;
63007;SDS011;49266;47.552;19.078;2022-11-14T13:27:33;17.98;;;12.27;;
63007;SDS011;49266;47.552;19.078;2022-11-14T13:32:50;16.92;;;10.43;;
63007;SDS011;49266;47.552;19.078;2022-11-14T13:37:21;13.43;;;9.95;;
63007;SDS011;49266;47.552;19.078;2022-11-14T13:51:41;18.47;;;13.30;;
63007;SDS011;49266;47.552;19.078;2022-11-14T13:56:37;17.27;;;11.50;;
63007;SDS011;49266;47.552;19.078;2022-11-14T14:15:36;16.90;;;12.15;;
63007;SDS011;49266;47.552;19.078;2022-11-14T14:25:03;19.08;;;12.43;;
63007;SDS011;49266;47.552;19.078;2022-11-14T14:30:29;20.90;;;13.52;;
63007;SDS011;49266;47.552;19.078;2022-11-14T14:34:50;22.02;;;14.50;;
63007;SDS011;49266;47.552;19.078;2022-11-14T14:39:35;21.10;;;13.98;;
63007;SDS011;49266;47.552;19.078;2022-11-14T14:49:02;20.27;;;13.32;;
63007;SDS011;49266;47.552;19.078;2022-11-14T14:53:49;20.73;;;13.38;;
63007;SDS011;49266;47.552;19.078;2022-11-14T14:58:31;20.33;;;13.85;;
63007;SDS011;49266;47.552;19.078;2022-11-14T15:03:12;20.13;;;14.00;;
63007;SDS011;49266;47.552;19.078;2022-11-14T15:07:53;26.42;;;15.30;;
63007;SDS011;49266;47.552;19.078;2022-11-14T15:12:34;28.35;;;16.15;;
63007;SDS011;49266;47.552;19.078;2022-11-14T15:17:14;24.65;;;17.15;;
63007;SDS011;49266;47.552;19.078;2022-11-14T15:27:05;29.67;;;16.88;;
63007;SDS011;49266;47.552;19.078;2022-11-14T15:31:56;28.48;;;17.08;;
63007;SDS011;49266;47.552;19.078;2022-11-14T15:36:49;28.00;;;17.42;;
63007;SDS011;49266;47.552;19.078;2022-11-14T15:41:37;31.40;;;17.92;;
63007;SDS011;49266;47.552;19.078;2022-11-14T15:51:07;29.05;;;17.55;;
63007;SDS011;49266;47.552;19.078;2022-11-14T15:55:47;29.45;;;17.90;;
63007;SDS011;49266;47.552;19.078;2022-11-14T16:00:27;30.98;;;18.80;;
63007;SDS011;49266;47.552;19.078;2022-11-14T16:05:08;31.63;;;19.05;;
63007;SDS011;49266;47.552;19.078;2022-11-14T16:09:51;31.65;;;19.00;;
63007;SDS011;49266;47.552;19.078;2022-11-14T16:14:31;34.28;;;20.63;;
63007;SDS011;49266;47.552;19.078;2022-11-14T16:19:11;40.88;;;23.52;;
63007;SDS011;49266;47.552;19.078;2022-11-14T16:23:53;42.42;;;24.92;;
63007;SDS011;49266;47.552;19.078;2022-11-14T16:28:33;42.85;;;25.10;;
63007;SDS011;49266;47.552;19.078;2022-11-14T16:33:13;41.47;;;25.92;;
63007;SDS011;49266;47.552;19.078;2022-11-14T16:37:53;41.90;;;27.02;;
63007;SDS011;49266;47.552;19.078;2022-11-14T16:42:34;44.60;;;27.15;;
63007;SDS011;49266;47.552;19.078;2022-11-14T16:47:14;46.80;;;26.52;;
63007;SDS011;49266;47.552;19.078;2022-11-14T16:51:56;46.22;;;27.17;;
63007;SDS011;49266;47.552;19.078;2022-11-14T16:56:37;44.72;;;28.52;;
63007;SDS011;49266;47.552;19.078;2022-11-14T17:01:17;46.35;;;27.48;;
63007;SDS011;49266;47.552;19.078;2022-11-14T17:05:58;49.83;;;28.08;;
63007;SDS011;49266;47.552;19.078;2022-11-14T17:10:38;46.28;;;28.17;;
63007;SDS011;49266;47.552;19.078;2022-11-14T17:15:19;43.92;;;28.60;;
63007;SDS011;49266;47.552;19.078;2022-11-14T17:19:59;47.08;;;28.02;;
63007;SDS011;49266;47.552;19.078;2022-11-14T17:24:39;48.97;;;28.15;;
63007;SDS011;49266;47.552;19.078;2022-11-14T17:29:19;45.67;;;27.65;;
63007;SDS011;49266;47.552;19.078;2022-11-14T17:33:59;48.50;;;28.85;;
63007;SDS011;49266;47.552;19.078;2022-11-14T17:38:40;51.35;;;30.23;;
63007;SDS011;49266;47.552;19.078;2022-11-14T17:43:20;54.67;;;29.27;;
63007;SDS011;49266;47.552;19.078;2022-11-14T17:48:00;50.03;;;30.75;;
63007;SDS011;49266;47.552;19.078;2022-11-14T17:52:40;53.58;;;31.95;;
63007;SDS011;49266;47.552;19.078;2022-11-14T17:57:21;52.13;;;31.83;;
63007;SDS011;49266;47.552;19.078;2022-11-14T18:02:01;50.47;;;31.25;;
63007;SDS011;49266;47.552;19.078;2022-11-14T18:06:41;55.95;;;32.40;;
63007;SDS011;49266;47.552;19.078;2022-11-14T18:11:21;56.72;;;33.38;;
63007;SDS011;49266;47.552;19.078;2022-11-14T18:16:03;54.65;;;32.65;;
63007;SDS011;49266;47.552;19.078;2022-11-14T18:20:44;60.05;;;34.85;;
63007;SDS011;49266;47.552;19.078;2022-11-14T18:25:27;63.00;;;34.80;;
63007;SDS011;49266;47.552;19.078;2022-11-14T18:30:07;60.40;;;35.97;;
63007;SDS011;49266;47.552;19.078;2022-11-14T18:34:47;64.05;;;35.00;;
63007;SDS011;49266;47.552;19.078;2022-11-14T18:39:27;65.75;;;36.88;;
63007;SDS011;49266;47.552;19.078;2022-11-14T18:44:09;66.60;;;37.42;;
63007;SDS011;49266;47.552;19.078;2022-11-14T18:48:53;68.22;;;38.25;;
63007;SDS011;49266;47.552;19.078;2022-11-14T18:53:34;71.25;;;39.95;;
63007;SDS011;49266;47.552;19.078;2022-11-14T18:58:14;72.88;;;40.42;;
63007;SDS011;49266;47.552;19.078;2022-11-14T19:02:55;70.80;;;39.67;;
63007;SDS011;49266;47.552;19.078;2022-11-14T19:07:35;71.05;;;40.22;;
63007;SDS011;49266;47.552;19.078;2022-11-14T19:12:15;68.32;;;40.60;;
63007;SDS011;49266;47.552;19.078;2022-11-14T19:17:00;74.45;;;41.35;;
63007;SDS011;49266;47.552;19.078;2022-11-14T19:21:41;74.93;;;42.15;;
63007;SDS011;49266;47.552;19.078;2022-11-14T19:26:22;82.33;;;44.07;;
63007;SDS011;49266;47.552;19.078;2022-11-14T19:31:05;95.28;;;44.75;;
63007;SDS011;49266;47.552;19.078;2022-11-14T19:35:46;79.90;;;43.92;;
63007;SDS011;49266;47.552;19.078;2022-11-14T19:40:26;82.70;;;45.33;;
63007;SDS011;49266;47.552;19.078;2022-11-14T19:45:08;86.70;;;48.55;;
63007;SDS011;49266;47.552;19.078;2022-11-14T19:49:49;88.20;;;51.22;;
63007;SDS011;49266;47.552;19.078;2022-11-14T19:54:29;105.10;;;55.67;;
63007;SDS011;49266;47.552;19.078;2022-11-14T19:59:09;106.15;;;57.95;;
63007;SDS011;49266;47.552;19.078;2022-11-14T20:03:57;103.47;;;54.65;;
63007;SDS011;49266;47.552;19.078;2022-11-14T20:08:38;127.25;;;57.70;;
63007;SDS011;49266;47.552;19.078;2022-11-14T20:13:18;192.70;;;52.38;;
63007;SDS011;49266;47.552;19.078;2022-11-14T20:17:59;180.68;;;54.10;;
63007;SDS011;49266;47.552;19.078;2022-11-14T20:22:39;139.13;;;53.17;;
63007;SDS011;49266;47.552;19.078;2022-11-14T20:27:20;152.20;;;47.60;;
63007;SDS011;49266;47.552;19.078;2022-11-14T20:32:00;149.52;;;43.85;;
63007;SDS011;49266;47.552;19.078;2022-11-14T20:36:42;130.45;;;43.83;;
63007;SDS011;49266;47.552;19.078;2022-11-14T20:41:22;130.60;;;44.53;;
63007;SDS011;49266;47.552;19.078;2022-11-14T20:46:06;126.13;;;41.63;;
63007;SDS011;49266;47.552;19.078;2022-11-14T20:50:48;237.52;;;43.60;;
63007;SDS011;49266;47.552;19.078;2022-11-14T20:55:28;168.65;;;44.47;;
63007;SDS011;49266;47.552;19.078;2022-11-14T21:00:08;145.35;;;43.20;;
63007;SDS011;49266;47.552;19.078;2022-11-14T21:04:49;169.90;;;45.53;;
63007;SDS011;49266;47.552;19.078;2022-11-14T21:09:29;159.35;;;44.03;;
63007;SDS011;49266;47.552;19.078;2022-11-14T21:14:10;138.00;;;38.90;;
63007;SDS011;49266;47.552;19.078;2022-11-14T21:18:53;153.15;;;41.88;;
63007;SDS011;49266;47.552;19.078;2022-11-14T21:23:33;114.32;;;42.97;;
63007;SDS011;49266;47.552;19.078;2022-11-14T21:28:14;107.63;;;39.92;;
63007;SDS011;49266;47.552;19.078;2022-11-14T21:32:54;116.30;;;40.20;;
63007;SDS011;49266;47.552;19.078;2022-11-14T21:37:34;125.47;;;39.97;;
63007;SDS011;49266;47.552;19.078;2022-11-14T21:42:14;109.25;;;39.40;;
63007;SDS011;49266;47.552;19.078;2022-11-14T21:46:55;146.90;;;34.53;;
63007;SDS011;49266;47.552;19.078;2022-11-14T21:51:35;125.43;;;35.10;;
63007;SDS011;49266;47.552;19.078;2022-11-14T21:56:16;180.52;;;36.17;;
63007;SDS011;49266;47.552;19.078;2022-11-14T22:01:02;194.73;;;35.05;;
63007;SDS011;49266;47.552;19.078;2022-11-14T22:05:42;84.38;;;34.33;;
63007;SDS011;49266;47.552;19.078;2022-11-14T22:10:22;118.47;;;35.75;;
63007;SDS011;49266;47.552;19.078;2022-11-14T22:15:03;121.80;;;35.85;;
63007;SDS011;49266;47.552;19.078;2022-11-14T22:19:43;109.93;;;32.88;;
63007;SDS011;49266;47.552;19.078;2022-11-14T22:24:23;145.68;;;32.55;;
63007;SDS011;49266;47.552;19.078;2022-11-14T22:29:03;142.95;;;32.35;;
63007;SDS011;49266;47.552;19.078;2022-11-14T22:33:45;142.18;;;32.20;;
63007;SDS011;49266;47.552;19.078;2022-11-14T22:38:27;199.50;;;33.33;;
63007;SDS011;49266;47.552;19.078;2022-11-14T22:43:07;106.35;;;33.30;;
63007;SDS011;49266;47.552;19.078;2022-11-14T22:47:47;136.52;;;35.40;;
63007;SDS011;49266;47.552;19.078;2022-11-14T22:52:28;124.75;;;32.33;;
63007;SDS011;49266;47.552;19.078;2022-11-14T22:57:08;94.95;;;35.13;;
63007;SDS011;49266;47.552;19.078;2022-11-14T23:01:48;126.40;;;35.38;;
63007;SDS011;49266;47.552;19.078;2022-11-14T23:06:29;168.00;;;34.50;;
63007;SDS011;49266;47.552;19.078;2022-11-14T23:11:11;167.43;;;35.22;;
63007;SDS011;49266;47.552;19.078;2022-11-14T23:15:52;281.50;;;36.08;;
63007;SDS011;49266;47.552;19.078;2022-11-14T23:20:33;248.38;;;36.42;;
63007;SDS011;49266;47.552;19.078;2022-11-14T23:25:14;217.80;;;32.97;;
63007;SDS011;49266;47.552;19.078;2022-11-14T23:29:54;193.32;;;35.28;;
63007;SDS011;49266;47.552;19.078;2022-11-14T23:34:34;134.10;;;32.53;;
63007;SDS011;49266;47.552;19.078;2022-11-14T23:39:14;151.90;;;32.25;;
63007;SDS011;49266;47.552;19.078;2022-11-14T23:43:54;137.35;;;32.25;;
63007;SDS011;49266;47.552;19.078;2022-11-14T23:48:35;198.85;;;32.95;;
63007;SDS011;49266;47.552;19.078;2022-11-14T23:53:15;193.20;;;32.22;;
63007;SDS011;49266;47.552;19.078;2022-11-14T23:57:55;101.70;;;32.47;;
